createdAt,value
2022-12-29T00:00:08.991Z,99667.33
2022-12-29T00:03:26.588Z,99669.71
2022-12-29T00:05:59.831Z,99669.66
2022-12-29T00:08:47.014Z,99658.89
2022-12-29T00:11:37.961Z,99645.80
2022-12-29T00:14:29.411Z,99656.17
2022-12-29T00:17:13.542Z,99650.77
2022-12-29T00:20:25.571Z,99637.65
2022-12-29T00:23:15.545Z,99632.63
2022-12-29T00:26:18.646Z,99635.35
2022-12-29T00:29:19.511Z,99636.13
2022-12-29T00:32:12.800Z,99633.92
2022-12-29T00:35:11.816Z,99627.46
2022-12-29T00:38:25.839Z,99631.30
2022-12-29T00:41:26.230Z,99623.38
2022-12-29T00:44:18.709Z,99609.27
2022-12-29T00:47:11.209Z,99592.76
2022-12-29T00:49:54.873Z,99590.89
2022-12-29T00:52:34.793Z,99598.19
2022-12-29T00:55:19.901Z,99600.93
2022-12-29T00:57:55.075Z,99601.75
2022-12-29T01:00:40.022Z,99605.85
2022-12-29T01:03:30.805Z,99616.05
2022-12-29T01:06:18.183Z,99622.71
2022-12-29T01:09:08.793Z,99623.71
2022-12-29T01:11:55.019Z,99635.38
2022-12-29T01:14:27.904Z,99633.09
2022-12-29T01:17:20.376Z,99639.26
2022-12-29T01:19:58.490Z,99636.68
2022-12-29T01:22:41.138Z,99641.86
2022-12-29T01:25:25.549Z,99641.06
2022-12-29T01:28:00.892Z,99627.25
2022-12-29T01:30:36.200Z,99629.48
2022-12-29T01:33:30.008Z,99629.49
2022-12-29T01:36:13.840Z,99625.12
2022-12-29T01:39:05.501Z,99620.58
2022-12-29T01:41:41.082Z,99614.24
2022-12-29T01:44:57.130Z,99608.28
2022-12-29T01:47:52.636Z,99601.45
2022-12-29T01:50:48.957Z,99603.73
2022-12-29T01:53:23.698Z,99608.63
2022-12-29T01:56:09.760Z,99597.53
2022-12-29T01:58:58.238Z,99593.12
2022-12-29T02:01:34.336Z,99587.36
2022-12-29T02:04:07.491Z,99576.65
2022-12-29T02:06:58.790Z,99564.21
2022-12-29T02:09:31.381Z,99560.83
2022-12-29T02:12:04.262Z,99561.77
2022-12-29T02:14:39.912Z,99556.69
2022-12-29T02:17:26.497Z,99542.49
2022-12-29T02:20:40.009Z,99540.64
2022-12-29T02:23:52.256Z,99536.39
2022-12-29T02:27:01.254Z,99527.94
2022-12-29T02:29:53.189Z,99520.52
2022-12-29T02:32:33.999Z,99520.66
2022-12-29T02:35:33.934Z,99509.56
2022-12-29T02:38:22.499Z,99503.66
2022-12-29T02:44:14.730Z,99483.23
2022-12-29T02:46:56.547Z,99482.02
2022-12-29T02:49:50.609Z,99505.04
2022-12-29T02:52:34.329Z,99513.20
2022-12-29T02:55:26.752Z,99514.96
2022-12-29T02:58:20.846Z,99523.38
2022-12-29T03:01:10.118Z,99532.78
2022-12-29T03:04:18.648Z,99537.77
2022-12-29T03:07:22.443Z,99540.45
2022-12-29T03:10:27.365Z,99534.67
2022-12-29T03:13:47.726Z,99527.71
2022-12-29T03:16:46.919Z,99517.25
2022-12-29T03:19:42.300Z,99514.33
2022-12-29T03:22:38.877Z,99509.05
2022-12-29T03:25:36.071Z,99511.14
2022-12-29T03:28:32.924Z,99528.95
2022-12-29T03:31:16.837Z,99535.33
2022-12-29T03:34:03.991Z,99539.21
2022-12-29T03:37:01.670Z,99535.25
2022-12-29T03:39:37.918Z,99533.09
2022-12-29T03:42:33.719Z,99535.71
2022-12-29T03:45:21.374Z,99530.73
2022-12-29T03:48:13.723Z,99528.86
2022-12-29T03:51:07.908Z,99521.84
2022-12-29T03:53:50.652Z,99523.39
2022-12-29T03:56:41.452Z,99523.60
2022-12-29T03:59:34.168Z,99515.62
2022-12-29T04:02:27.099Z,99510.38
2022-12-29T04:05:21.796Z,99501.29
2022-12-29T04:08:14.392Z,99493.00
2022-12-29T04:11:06.988Z,99486.27
2022-12-29T04:13:50.751Z,99485.35
2022-12-29T04:16:44.098Z,99489.45
2022-12-29T04:19:29.331Z,99493.05
2022-12-29T04:22:14.172Z,99501.50
2022-12-29T04:25:05.377Z,99500.50
2022-12-29T04:27:58.262Z,99493.74
2022-12-29T04:31:00.113Z,99511.14
2022-12-29T04:33:44.330Z,99508.88
2022-12-29T04:36:36.927Z,99502.88
2022-12-29T04:39:29.081Z,99498.67
2022-12-29T04:42:21.517Z,99490.73
2022-12-29T04:45:15.048Z,99474.06
2022-12-29T04:48:13.696Z,99475.84
2022-12-29T04:51:08.998Z,99479.66
2022-12-29T04:53:54.899Z,99475.02
2022-12-29T04:56:47.347Z,99475.88
2022-12-29T04:59:32.983Z,99468.83
2022-12-29T05:02:30.611Z,99455.86
2022-12-29T05:05:17.515Z,99453.75
2022-12-29T05:08:10.346Z,99453.54
2022-12-29T05:10:53.793Z,99464.85
2022-12-29T05:13:39.104Z,99468.48
2022-12-29T05:16:22.046Z,99460.09
2022-12-29T05:19:08.574Z,99460.31
2022-12-29T05:21:54.147Z,99459.30
2022-12-29T05:24:47.357Z,99451.95
2022-12-29T05:27:34.731Z,99447.82
2022-12-29T05:30:36.158Z,99461.01
2022-12-29T05:33:28.900Z,99454.67
2022-12-29T05:36:20.812Z,99452.58
2022-12-29T05:39:09.869Z,99453.52
2022-12-29T05:41:56.111Z,99460.88
2022-12-29T05:45:02.934Z,99462.70
2022-12-29T05:47:58.278Z,99461.54
2022-12-29T05:50:53.112Z,99452.48
2022-12-29T05:53:46.134Z,99455.95
2022-12-29T05:56:33.252Z,99447.64
2022-12-29T05:59:26.484Z,99435.65
2022-12-29T06:02:19.428Z,99431.61
2022-12-29T06:05:02.414Z,99425.07
2022-12-29T06:07:42.916Z,99419.08
2022-12-29T06:10:36.180Z,99403.46
2022-12-29T06:13:29.807Z,99395.81
2022-12-29T06:16:23.040Z,99393.21
2022-12-29T06:19:09.177Z,99404.48
2022-12-29T06:22:00.309Z,99405.81
2022-12-29T06:24:53.129Z,99413.78
2022-12-29T06:27:29.522Z,99422.61
2022-12-29T06:30:22.546Z,99418.80
2022-12-29T06:33:15.629Z,99422.89
2022-12-29T06:36:09.946Z,99426.90
2022-12-29T06:39:02.989Z,99427.79
2022-12-29T06:41:44.872Z,99427.77
2022-12-29T06:44:27.155Z,99419.80
2022-12-29T06:47:20.040Z,99416.94
2022-12-29T06:50:03.997Z,99412.49
2022-12-29T06:52:56.504Z,99415.31
2022-12-29T06:55:47.799Z,99420.61
2022-12-29T06:58:41.049Z,99426.98
2022-12-29T07:01:20.665Z,99432.05
2022-12-29T07:04:11.607Z,99433.25
2022-12-29T07:06:55.114Z,99436.86
2022-12-29T07:09:46.013Z,99440.34
2022-12-29T07:12:38.562Z,99435.84
2022-12-29T07:15:29.362Z,99423.20
2022-12-29T07:18:21.653Z,99410.11
2022-12-29T07:21:14.353Z,99405.79
2022-12-29T07:24:07.760Z,99402.50
2022-12-29T07:26:50.998Z,99403.97
2022-12-29T07:29:29.121Z,99404.76
2022-12-29T07:32:21.407Z,99411.61
2022-12-29T07:35:14.522Z,99421.13
2022-12-29T07:38:07.224Z,99426.63
2022-12-29T07:40:39.943Z,99427.06
2022-12-29T07:43:32.365Z,99419.91
2022-12-29T07:46:56.677Z,99422.42
2022-12-29T07:49:37.699Z,99426.54
2022-12-29T07:52:30.114Z,99422.84
2022-12-29T07:55:13.846Z,99425.77
2022-12-29T07:57:46.541Z,99430.91
2022-12-29T08:00:39.067Z,99439.04
2022-12-29T08:03:27.033Z,99437.59
2022-12-29T08:06:23.516Z,99429.07
2022-12-29T08:09:07.859Z,99426.30
2022-12-29T08:11:45.101Z,99422.34
2022-12-29T08:14:20.548Z,99425.58
2022-12-29T08:16:57.398Z,99431.50
2022-12-29T08:19:38.979Z,99436.19
2022-12-29T08:22:31.737Z,99442.51
2022-12-29T08:25:22.803Z,99449.75
2022-12-29T08:28:16.511Z,99450.91
2022-12-29T08:31:10.806Z,99453.11
2022-12-29T08:33:53.842Z,99443.80
2022-12-29T08:36:44.810Z,99436.74
2022-12-29T08:39:36.983Z,99439.83
2022-12-29T08:42:19.855Z,99440.67
2022-12-29T08:45:11.680Z,99435.81
2022-12-29T08:48:04.267Z,99420.16
2022-12-29T08:50:56.868Z,99423.00
2022-12-29T08:53:49.433Z,99424.97
2022-12-29T08:56:40.195Z,99421.70
2022-12-29T08:59:32.959Z,99418.42
2022-12-29T09:02:26.195Z,99413.05
2022-12-29T09:05:14.584Z,99410.23
2022-12-29T09:08:06.971Z,99410.59
2022-12-29T09:11:07.591Z,99419.42
2022-12-29T09:14:00.841Z,99424.56
2022-12-29T09:17:12.741Z,99422.63
2022-12-29T09:19:59.594Z,99433.23
2022-12-29T09:22:52.848Z,99436.67
2022-12-29T09:25:38.879Z,99433.48
2022-12-29T09:28:32.408Z,99431.80
2022-12-29T09:31:26.264Z,99424.80
2022-12-29T09:34:20.080Z,99429.83
2022-12-29T09:37:13.197Z,99425.05
2022-12-29T09:40:06.655Z,99422.98
2022-12-29T09:43:05.663Z,99419.66
2022-12-29T09:46:09.331Z,99421.92
2022-12-29T09:49:15.269Z,99427.61
2022-12-29T09:52:15.535Z,99424.34
2022-12-29T09:55:02.886Z,99424.78
2022-12-29T09:57:55.919Z,99424.54
2022-12-29T10:00:55.093Z,99424.81
2022-12-29T10:03:52.960Z,99424.80
2022-12-29T10:07:28.033Z,99424.27
2022-12-29T10:10:19.398Z,99422.19
2022-12-29T10:13:26.891Z,99425.16
2022-12-29T10:16:27.676Z,99428.48
2022-12-29T10:19:48.544Z,99431.63
2022-12-29T10:22:53.783Z,99424.28
2022-12-29T10:25:47.031Z,99430.14
2022-12-29T10:28:41.166Z,99426.20
2022-12-29T10:31:24.766Z,99418.92
2022-12-29T10:34:24.564Z,99417.09
2022-12-29T10:37:17.957Z,99418.59
2022-12-29T10:39:55.056Z,99419.90
2022-12-29T10:42:52.655Z,99431.56
2022-12-29T10:45:45.510Z,99427.03
2022-12-29T10:48:38.613Z,99421.39
2022-12-29T10:51:26.560Z,99412.94
2022-12-29T10:54:06.387Z,99422.60
2022-12-29T10:57:06.442Z,99421.39
2022-12-29T10:59:59.611Z,99426.65
2022-12-29T11:03:04.801Z,99428.80
2022-12-29T11:05:57.321Z,99430.10
2022-12-29T11:08:57.503Z,99437.00
2022-12-29T11:11:49.966Z,99428.83
2022-12-29T11:14:33.800Z,99427.85
2022-12-29T11:17:06.808Z,99426.29
2022-12-29T11:19:41.669Z,99415.42
2022-12-29T11:22:26.289Z,99415.63
2022-12-29T11:25:18.890Z,99399.51
2022-12-29T11:28:18.611Z,99404.33
2022-12-29T11:31:05.838Z,99404.14
2022-12-29T11:33:46.684Z,99405.23
2022-12-29T11:36:31.915Z,99406.64
2022-12-29T11:39:10.477Z,99399.05
2022-12-29T11:42:10.663Z,99395.73
2022-12-29T11:45:10.681Z,99395.23
2022-12-29T11:48:09.099Z,99387.67
2022-12-29T11:51:02.002Z,99390.73
2022-12-29T11:53:58.327Z,99386.49
2022-12-29T11:56:53.338Z,99381.08
2022-12-29T11:59:42.807Z,99376.43
2022-12-29T12:02:42.182Z,99369.36
2022-12-29T12:05:32.045Z,99364.56
2022-12-29T12:08:34.676Z,99365.55
2022-12-29T12:11:37.390Z,99368.50
2022-12-29T12:14:34.149Z,99373.44
2022-12-29T12:17:45.255Z,99371.10
2022-12-29T12:20:47.466Z,99364.19
2022-12-29T12:23:35.019Z,99367.09
2022-12-29T12:26:18.834Z,99363.89
2022-12-29T12:29:17.840Z,99356.19
2022-12-29T12:32:18.531Z,99358.13
2022-12-29T12:35:21.338Z,99362.42
2022-12-29T12:38:24.042Z,99364.27
2022-12-29T12:41:25.045Z,99366.17
2022-12-29T12:44:27.426Z,99368.22
2022-12-29T12:47:16.813Z,99369.44
2022-12-29T12:50:21.402Z,99366.05
2022-12-29T12:53:09.508Z,99361.80
2022-12-29T12:56:14.837Z,99367.20
2022-12-29T12:59:09.765Z,99366.99
2022-12-29T13:02:13.971Z,99368.80
2022-12-29T13:05:00.870Z,99359.85
2022-12-29T13:08:25.855Z,99352.77
2022-12-29T13:11:27.234Z,99348.52
2022-12-29T13:14:13.794Z,99350.87
2022-12-29T13:17:15.020Z,99346.65
2022-12-29T13:19:57.606Z,99340.89
2022-12-29T13:22:46.162Z,99351.13
2022-12-29T13:25:34.708Z,99360.41
2022-12-29T13:28:19.343Z,99358.36
2022-12-29T13:31:03.261Z,99359.34
2022-12-29T13:34:02.985Z,99364.50
2022-12-29T13:36:44.142Z,99366.63
2022-12-29T13:39:41.024Z,99376.25
2022-12-29T13:42:34.272Z,99373.94
2022-12-29T13:45:21.550Z,99371.17
2022-12-29T13:48:21.453Z,99362.55
2022-12-29T13:51:04.429Z,99363.25
2022-12-29T13:53:44.464Z,99357.02
2022-12-29T13:56:26.773Z,99353.69
2022-12-29T13:59:20.006Z,99356.92
2022-12-29T14:02:18.749Z,99356.83
2022-12-29T14:05:07.930Z,99355.84
2022-12-29T14:08:03.970Z,99356.25
2022-12-29T14:10:53.451Z,99344.55
2022-12-29T14:13:42.614Z,99352.20
2022-12-29T14:16:37.622Z,99355.91
2022-12-29T14:19:26.206Z,99367.52
2022-12-29T14:22:33.074Z,99368.61
2022-12-29T14:25:50.731Z,99362.96
2022-12-29T14:28:39.480Z,99349.46
2022-12-29T14:31:43.029Z,99349.52
2022-12-29T14:34:39.674Z,99346.83
2022-12-29T14:37:31.187Z,99346.30
2022-12-29T14:40:24.941Z,99340.50
2022-12-29T14:43:26.558Z,99344.83
2022-12-29T14:46:19.239Z,99343.79
2022-12-29T14:49:20.646Z,99350.70
2022-12-29T14:52:25.197Z,99356.58
2022-12-29T14:55:42.865Z,99356.05
2022-12-29T14:58:46.565Z,99356.48
2022-12-29T15:01:41.027Z,99362.11
2022-12-29T15:04:37.477Z,99362.63
2022-12-29T15:07:21.762Z,99357.20
2022-12-29T15:10:14.629Z,99362.25
2022-12-29T15:13:16.923Z,99360.70
2022-12-29T15:16:26.633Z,99364.90
2022-12-29T15:19:27.709Z,99361.20
2022-12-29T15:22:05.623Z,99361.14
2022-12-29T15:24:59.950Z,99356.95
2022-12-29T15:27:55.136Z,99356.56
2022-12-29T15:30:32.393Z,99356.27
2022-12-29T15:33:24.873Z,99351.79
2022-12-29T15:36:15.216Z,99348.79
2022-12-29T15:38:53.146Z,99345.34
2022-12-29T15:42:02.440Z,99341.38
2022-12-29T15:44:57.788Z,99344.41
2022-12-29T15:47:58.707Z,99350.54
2022-12-29T15:50:51.651Z,99359.67
2022-12-29T15:53:29.468Z,99354.64
2022-12-29T15:56:22.383Z,99354.84
2022-12-29T15:59:07.749Z,99350.39
2022-12-29T16:01:51.943Z,99352.17
2022-12-29T16:05:16.096Z,99348.48
2022-12-29T16:08:01.487Z,99351.64
2022-12-29T16:10:51.513Z,99353.73
2022-12-29T16:13:33.138Z,99360.11
2022-12-29T16:16:21.520Z,99360.30
2022-12-29T16:19:20.120Z,99363.88
2022-12-29T16:22:33.107Z,99367.69
2022-12-29T16:25:13.403Z,99369.72
2022-12-29T16:28:17.773Z,99373.94
2022-12-29T16:31:04.728Z,99375.65
2022-12-29T16:33:51.927Z,99379.27
2022-12-29T16:36:42.129Z,99377.23
2022-12-29T16:39:27.474Z,99376.13
2022-12-29T16:42:51.748Z,99383.80
2022-12-29T16:46:08.314Z,99386.57
2022-12-29T16:48:54.898Z,99379.31
2022-12-29T16:51:39.418Z,99380.57
2022-12-29T16:54:35.713Z,99380.52
2022-12-29T16:57:33.236Z,99369.31
2022-12-29T17:00:29.030Z,99357.67
2022-12-29T17:03:15.479Z,99362.30
2022-12-29T17:06:01.052Z,99365.09
2022-12-29T17:08:46.848Z,99365.89
2022-12-29T17:12:01.696Z,99368.42
2022-12-29T17:14:58.883Z,99376.61
2022-12-29T17:17:53.528Z,99381.98
2022-12-29T17:20:31.199Z,99387.13
2022-12-29T17:23:24.484Z,99388.41
2022-12-29T17:26:05.382Z,99392.17
2022-12-29T17:28:37.824Z,99390.80
2022-12-29T17:31:30.303Z,99393.27
2022-12-29T17:34:13.069Z,99394.42
2022-12-29T17:36:54.517Z,99392.86
2022-12-29T17:39:47.795Z,99391.48
2022-12-29T17:42:22.331Z,99389.99
2022-12-29T17:45:19.490Z,99390.20
2022-12-29T17:48:02.397Z,99387.13
2022-12-29T17:50:58.394Z,99383.83
2022-12-29T17:53:54.246Z,99385.13
2022-12-29T17:56:46.963Z,99387.00
2022-12-29T17:59:33.240Z,99384.08
2022-12-29T18:02:31.010Z,99393.34
2022-12-29T18:05:23.416Z,99399.91
2022-12-29T18:08:00.464Z,99406.50
2022-12-29T18:10:36.127Z,99403.61
2022-12-29T18:13:43.558Z,99403.20
2022-12-29T18:16:38.166Z,99406.70
2022-12-29T18:19:35.619Z,99407.27
2022-12-29T18:22:21.142Z,99410.41
2022-12-29T18:25:23.440Z,99413.22
2022-12-29T18:28:07.115Z,99416.92
2022-12-29T18:31:01.546Z,99415.60
2022-12-29T18:33:40.438Z,99419.89
2022-12-29T18:36:34.474Z,99422.48
2022-12-29T18:39:17.832Z,99423.03
2022-12-29T18:41:53.085Z,99401.75
2022-12-29T18:44:46.107Z,99393.11
2022-12-29T18:47:22.431Z,99391.09
2022-12-29T18:50:15.880Z,99383.73
2022-12-29T18:53:01.620Z,99376.80
2022-12-29T18:55:58.993Z,99385.04
2022-12-29T18:58:53.971Z,99394.27
2022-12-29T19:01:37.036Z,99401.46
2022-12-29T19:04:27.878Z,99396.17
2022-12-29T19:07:21.179Z,99397.48
2022-12-29T19:10:07.474Z,99398.70
2022-12-29T19:13:00.037Z,99393.94
2022-12-29T19:15:52.717Z,99391.81
2022-12-29T19:18:44.240Z,99390.60
2022-12-29T19:21:38.200Z,99397.93
2022-12-29T19:24:30.707Z,99395.29
2022-12-29T19:27:21.705Z,99391.02
2022-12-29T19:30:15.948Z,99388.41
2022-12-29T19:33:09.749Z,99386.14
2022-12-29T19:35:45.983Z,99385.05
2022-12-29T19:38:21.521Z,99385.91
2022-12-29T19:41:14.473Z,99382.77
2022-12-29T19:44:09.059Z,99385.45
2022-12-29T19:47:00.181Z,99387.93
2022-12-29T19:49:51.150Z,99382.45
2022-12-29T19:52:32.202Z,99383.42
2022-12-29T19:55:23.529Z,99384.80
2022-12-29T19:58:06.828Z,99384.14
2022-12-29T20:01:04.752Z,99380.64
2022-12-29T20:03:54.843Z,99383.80
2022-12-29T20:06:38.339Z,99384.13
2022-12-29T20:09:19.528Z,99378.81
2022-12-29T20:12:11.969Z,99373.35
2022-12-29T20:14:46.147Z,99376.86
2022-12-29T20:18:11.636Z,99373.05
2022-12-29T20:20:37.017Z,99369.67
2022-12-29T20:23:19.176Z,99362.95
2022-12-29T20:26:10.062Z,99368.36
2022-12-29T20:29:01.019Z,99369.48
2022-12-29T20:31:33.031Z,99373.32
2022-12-29T20:34:24.602Z,99376.98
2022-12-29T20:37:15.571Z,99375.86
2022-12-29T20:40:08.756Z,99380.05
2022-12-29T20:42:59.724Z,99376.77
2022-12-29T20:45:51.086Z,99375.58
2022-12-29T20:48:42.346Z,99384.84
2022-12-29T20:52:04.042Z,99389.80
2022-12-29T20:54:39.160Z,99390.52
2022-12-29T20:57:24.175Z,99396.17
2022-12-29T21:00:22.092Z,99405.94
2022-12-29T21:03:13.981Z,99411.34
2022-12-29T21:06:05.181Z,99406.90
2022-12-29T21:08:39.073Z,99405.91
2022-12-29T21:11:29.965Z,99410.17
2022-12-29T21:14:01.685Z,99409.05
2022-12-29T21:16:51.301Z,99420.61
2022-12-29T21:19:33.129Z,99426.80
2022-12-29T21:22:09.453Z,99418.98
2022-12-29T21:25:00.304Z,99419.23
2022-12-29T21:27:35.491Z,99413.45
2022-12-29T21:30:07.012Z,99419.45
2022-12-29T21:32:47.116Z,99430.34
2022-12-29T21:35:20.841Z,99428.17
2022-12-29T21:37:54.917Z,99426.95
2022-12-29T21:40:37.007Z,99426.17
2022-12-29T21:43:21.415Z,99422.80
2022-12-29T21:46:12.173Z,99429.13
2022-12-29T21:48:45.349Z,99427.42
2022-12-29T21:51:51.265Z,99429.88
2022-12-29T21:54:53.446Z,99430.23
2022-12-29T21:57:51.912Z,99429.39
2022-12-29T22:01:00.519Z,99431.04
2022-12-29T22:04:09.045Z,99432.33
2022-12-29T22:07:02.288Z,99432.33
2022-12-29T22:09:51.113Z,99438.38
2022-12-29T22:12:49.549Z,99441.98
2022-12-29T22:15:41.214Z,99440.16
2022-12-29T22:18:32.149Z,99442.90
2022-12-29T22:21:23.020Z,99438.35
2022-12-29T22:24:13.799Z,99436.22
2022-12-29T22:27:04.680Z,99433.31
2022-12-29T22:29:44.379Z,99435.59
2022-12-29T22:32:17.965Z,99439.95
2022-12-29T22:35:09.821Z,99438.38
2022-12-29T22:37:57.746Z,99433.16
2022-12-29T22:40:31.664Z,99434.14
2022-12-29T22:43:12.912Z,99427.21
2022-12-29T22:45:46.936Z,99422.80
2022-12-29T22:48:38.056Z,99425.02
2022-12-29T22:51:16.597Z,99423.05
2022-12-29T22:54:07.388Z,99426.31
2022-12-29T22:56:42.378Z,99422.38
2022-12-29T22:59:33.936Z,99428.98
2022-12-29T23:02:07.628Z,99433.16
2022-12-29T23:07:29.435Z,99437.27
2022-12-29T23:10:05.181Z,99442.31
2022-12-29T23:12:38.945Z,99436.39
2022-12-29T23:15:13.607Z,99430.69
2022-12-29T23:17:53.593Z,99417.23
2022-12-29T23:20:30.206Z,99417.98
2022-12-29T23:23:01.528Z,99420.35
2022-12-29T23:25:36.016Z,99421.05
2022-12-29T23:28:07.488Z,99422.16
2022-12-29T23:30:49.205Z,99420.58
2022-12-29T23:33:22.944Z,99419.34
2022-12-29T23:36:05.008Z,99419.52
2022-12-29T23:38:39.837Z,99420.58
2022-12-29T23:41:10.731Z,99417.31
2022-12-29T23:43:44.251Z,99413.38
2022-12-29T23:46:19.132Z,99413.09
2022-12-29T23:48:52.547Z,99414.21
2022-12-29T23:51:26.295Z,99417.75
2022-12-29T23:54:17.106Z,99420.79
2022-12-29T23:56:55.426Z,99414.52
2022-12-29T23:59:28.996Z,99407.16
